createdAt,value
2018-06-08T00:00:26.959Z,35.12
2018-06-08T00:01:26.947Z,35.5
2018-06-08T00:02:26.942Z,35.41
2018-06-08T00:03:27.191Z,35.7
2018-06-08T00:04:26.918Z,35.6
2018-06-08T00:05:26.911Z,35.99
2018-06-08T00:06:27.165Z,35.79
2018-06-08T00:07:27.154Z,35.99
2018-06-08T00:08:27.149Z,36.37
2018-06-08T00:09:26.868Z,36.56
2018-06-08T00:10:27.124Z,36.27
2018-06-08T00:11:26.853Z,36.08
2018-06-08T00:12:27.105Z,36.47
2018-06-08T00:13:27.102Z,36.47
2018-06-08T00:14:27.085Z,36.56
2018-06-08T00:15:27.077Z,36.27
2018-06-08T00:16:26.800Z,36.56
2018-06-08T00:17:27.210Z,36.37
2018-06-08T00:18:27.043Z,36.18
2018-06-08T00:19:26.773Z,36.56
2018-06-08T00:20:26.765Z,36.66
2018-06-08T00:21:26.758Z,36.56
2018-06-08T00:22:26.743Z,36.76
2018-06-08T00:23:26.996Z,36.66
2018-06-08T00:24:26.721Z,37.24
2018-06-08T00:25:26.727Z,37.52
2018-06-08T00:26:26.965Z,37.34
2018-06-08T00:27:26.959Z,37.43
2018-06-08T00:28:26.946Z,37.62
2018-06-08T00:29:26.676Z,37.81
2018-06-08T00:30:26.927Z,37.81
2018-06-08T00:31:26.654Z,38.1
2018-06-08T00:32:26.906Z,37.91
2018-06-08T00:33:26.635Z,38.49
2018-06-08T00:34:26.895Z,38.29
2018-06-08T00:35:26.618Z,38.1
2018-06-08T00:36:26.870Z,38.29
2018-06-08T00:37:26.860Z,38.29
2018-06-08T00:38:26.849Z,38.59
2018-06-08T00:39:26.581Z,38.68
2018-06-08T00:40:26.831Z,38.87
2018-06-08T00:41:26.825Z,38.59
2018-06-08T00:42:26.810Z,38.2
2018-06-08T00:43:26.799Z,38.39
2018-06-08T00:44:26.794Z,38.49
2018-06-08T00:45:26.787Z,38.29
2018-06-08T00:46:26.513Z,37.91
2018-06-08T00:47:26.760Z,38.1
2018-06-08T00:48:26.956Z,38.29
2018-06-08T00:49:26.745Z,38.2
2018-06-08T00:50:26.469Z,38.2
2018-06-08T00:51:26.728Z,38.39
2018-06-08T00:52:26.714Z,38.39
2018-06-08T00:53:26.709Z,38.1
2018-06-08T00:54:26.698Z,38.2
2018-06-08T00:55:26.424Z,37.81
2018-06-08T00:56:26.672Z,37.62
2018-06-08T00:57:26.668Z,37.81
2018-06-08T00:58:26.661Z,37.6
2018-06-08T00:59:26.381Z,37.43
2018-06-08T01:00:26.639Z,37.81
2018-06-08T01:01:26.636Z,37.34
2018-06-08T01:02:26.618Z,37.22
2018-06-08T01:03:26.348Z,37.43
2018-06-08T01:04:26.601Z,37.24
2018-06-08T01:05:26.324Z,36.93
2018-06-08T01:06:26.313Z,37.22
2018-06-08T01:07:26.574Z,36.93
2018-06-08T01:08:26.295Z,37.32
2018-06-08T01:09:26.551Z,37.22
2018-06-08T01:10:26.279Z,37.32
2018-06-08T01:11:26.265Z,37.6
2018-06-08T01:12:26.520Z,37.41
2018-06-08T01:13:26.508Z,37.32
2018-06-08T01:14:26.501Z,36.95
2018-06-08T01:15:26.493Z,37.32
2018-06-08T01:16:26.219Z,37.32
2018-06-08T01:17:26.474Z,37.22
2018-06-08T01:18:26.198Z,37.02
2018-06-08T01:19:26.450Z,37.22
2018-06-08T01:20:26.446Z,37.34
2018-06-08T01:21:26.483Z,37.22
2018-06-08T01:22:26.424Z,37.12
2018-06-08T01:23:26.153Z,37.34
2018-06-08T01:24:26.408Z,36.83
2018-06-08T01:25:26.395Z,36.83
2018-06-08T01:26:26.119Z,36.83
2018-06-08T01:27:26.376Z,36.93
2018-06-08T01:28:26.363Z,36.54
2018-06-08T01:29:26.095Z,37.02
2018-06-08T01:30:26.349Z,36.25
2018-06-08T01:31:26.335Z,36.54
2018-06-08T01:32:26.326Z,35.87
2018-06-08T01:33:26.324Z,35.68
2018-06-08T01:34:26.308Z,35.68
2018-06-08T01:35:26.299Z,35.58
2018-06-08T01:36:26.284Z,35.87
2018-06-08T01:37:26.019Z,36.07
2018-06-08T01:38:26.268Z,36.07
2018-06-08T01:39:25.994Z,36.25
2018-06-08T01:40:26.247Z,36.07
2018-06-08T01:41:26.245Z,36.16
2018-06-08T01:42:26.230Z,36.35
2018-06-08T01:43:25.959Z,36.64
2018-06-08T01:44:26.211Z,36.37
2018-06-08T01:45:26.655Z,36.16
2018-06-08T01:46:26.195Z,36.25
2018-06-08T01:47:26.181Z,36.35
2018-06-08T01:48:26.172Z,36.45
2018-06-08T01:49:26.159Z,36.35
2018-06-08T01:50:26.151Z,36.07
2018-06-08T01:51:25.877Z,35.87
2018-06-08T01:52:25.866Z,35.77
2018-06-08T01:53:26.117Z,35.77
2018-06-08T01:54:26.111Z,34.91
2018-06-08T01:55:26.099Z,35
2018-06-08T01:56:25.829Z,35
2018-06-08T01:57:25.820Z,35.1
2018-06-08T01:58:26.085Z,34.53
2018-06-08T01:59:25.802Z,34.43
2018-06-08T02:00:26.053Z,34.23
2018-06-08T02:01:26.041Z,34.43
2018-06-08T02:02:26.037Z,34.33
2018-06-08T02:03:26.027Z,34.33
2018-06-08T02:04:26.012Z,33.95
2018-06-08T02:05:26.003Z,33.56
2018-06-08T02:06:25.996Z,32.98
2018-06-08T02:07:25.982Z,33.37
2018-06-08T02:08:25.976Z,33.37
2018-06-08T02:09:25.965Z,32.98
2018-06-08T02:10:25.960Z,32.98
2018-06-08T02:11:25.682Z,32.79
2018-06-08T02:12:25.933Z,32.98
2018-06-08T02:13:25.665Z,32.89
2018-06-08T02:14:25.917Z,33.18
2018-06-08T02:15:25.641Z,32.98
2018-06-08T02:16:25.896Z,32.98
2018-06-08T02:17:25.887Z,33.08
2018-06-08T02:18:25.875Z,32.89
2018-06-08T02:19:25.605Z,33.08
2018-06-08T02:20:25.860Z,33.28
2018-06-08T02:21:25.846Z,32.79
2018-06-08T02:22:25.575Z,32.7
2018-06-08T02:23:25.829Z,32.89
2018-06-08T02:24:25.550Z,32.79
2018-06-08T02:25:25.544Z,32.79
2018-06-08T02:26:25.533Z,32.98
2018-06-08T02:27:25.789Z,33.18
2018-06-08T02:28:25.516Z,32.89
2018-06-08T02:29:25.503Z,33.28
2018-06-08T02:30:25.493Z,33.37
2018-06-08T02:31:25.747Z,32.98
2018-06-08T02:32:25.738Z,33.28
2018-06-08T02:33:25.732Z,33.08
2018-06-08T02:34:25.715Z,33.08
2018-06-08T02:35:25.449Z,33.08
2018-06-08T02:36:25.698Z,33.07
2018-06-08T02:37:25.428Z,33.07
2018-06-08T02:38:25.417Z,33.18
2018-06-08T02:39:25.673Z,33.56
2018-06-08T02:40:25.661Z,33.66
2018-06-08T02:41:25.383Z,33.64
2018-06-08T02:42:25.641Z,33.93
2018-06-08T02:43:25.628Z,33.95
2018-06-08T02:44:25.627Z,33.54
2018-06-08T02:45:25.348Z,33.84
2018-06-08T02:46:25.609Z,33.84
2018-06-08T02:47:25.589Z,33.95
2018-06-08T02:48:25.517Z,33.93
2018-06-08T02:49:25.571Z,34.03
2018-06-08T02:50:25.559Z,33.74
2018-06-08T02:51:25.283Z,33.74
2018-06-08T02:52:25.280Z,33.84
2018-06-08T02:53:25.265Z,33.84
2018-06-08T02:54:25.256Z,34.12
2018-06-08T02:55:25.250Z,34.03
2018-06-08T02:56:25.499Z,34.03
2018-06-08T02:57:25.489Z,34.41
2018-06-08T02:58:25.491Z,34.31
2018-06-08T02:59:25.205Z,34.41
2018-06-08T03:00:25.484Z,34.51
2018-06-08T03:01:25.190Z,34.41
2018-06-08T03:02:25.446Z,34.41
2018-06-08T03:03:25.432Z,34.51
2018-06-08T03:04:25.171Z,34.22
2018-06-08T03:05:25.483Z,34.12
2018-06-08T03:06:25.143Z,34.03
2018-06-08T03:07:25.405Z,33.93
2018-06-08T03:08:25.388Z,33.36
2018-06-08T03:09:25.379Z,33.07
2018-06-08T03:10:25.103Z,33.07
2018-06-08T03:11:25.351Z,33.45
2018-06-08T03:12:25.345Z,33.07
2018-06-08T03:13:25.063Z,32.97
2018-06-08T03:14:25.056Z,33.07
2018-06-08T03:15:25.050Z,33.07
2018-06-08T03:16:25.036Z,33.54
2018-06-08T03:17:25.289Z,33.45
2018-06-08T03:18:25.017Z,33.36
2018-06-08T03:19:25.276Z,33.36
2018-06-08T03:20:25.002Z,33.45
2018-06-08T03:21:24.987Z,33.36
2018-06-08T03:22:24.981Z,33.36
2018-06-08T03:23:25.241Z,33.26
2018-06-08T03:24:24.958Z,33.64
2018-06-08T03:25:25.215Z,33.84
2018-06-08T03:26:25.205Z,33.93
2018-06-08T03:27:25.191Z,34.03
2018-06-08T03:28:25.181Z,34.12
2018-06-08T03:29:24.914Z,34.22
2018-06-08T03:30:25.171Z,33.93
2018-06-08T03:31:25.177Z,34.12
2018-06-08T03:32:25.146Z,34.41
2018-06-08T03:33:25.151Z,34.22
2018-06-08T03:34:24.857Z,34.41
2018-06-08T03:35:24.855Z,34.22
2018-06-08T03:36:24.840Z,34.22
2018-06-08T03:37:24.827Z,33.84
2018-06-08T03:38:25.092Z,33.93
2018-06-08T03:39:24.806Z,33.07
2018-06-08T03:40:25.066Z,33.07
2018-06-08T03:41:25.049Z,32.78
2018-06-08T03:42:25.045Z,32.78
2018-06-08T03:43:25.040Z,32.78
2018-06-08T03:44:24.757Z,32.87
2018-06-08T03:45:24.751Z,32.68
2018-06-08T03:46:25.007Z,32.2
2018-06-08T03:47:24.726Z,32.78
2018-06-08T03:48:24.986Z,32.68
2018-06-08T03:49:24.708Z,32.68
2018-06-08T03:50:24.960Z,32.49
2018-06-08T03:51:24.955Z,32.97
2018-06-08T03:52:24.952Z,32.59
2018-06-08T03:53:24.933Z,32.87
2018-06-08T03:54:24.658Z,32.68
2018-06-08T03:55:24.922Z,32.1
2018-06-08T03:56:24.912Z,32.1
2018-06-08T03:57:24.893Z,32.2
2018-06-08T03:58:24.886Z,32.01
2018-06-08T03:59:24.879Z,32.01
2018-06-08T04:00:24.863Z,31.24
2018-06-08T04:01:24.853Z,31.24
2018-06-08T04:02:24.619Z,31.24
2018-06-08T04:03:24.835Z,31.24
2018-06-08T04:04:24.823Z,31.15
2018-06-08T04:05:24.811Z,31.15
2018-06-08T04:06:24.801Z,30.76
2018-06-08T04:07:24.794Z,30.38
2018-06-08T04:08:24.790Z,30.39
2018-06-08T04:09:24.773Z,29.8
2018-06-08T04:10:24.766Z,29.91
2018-06-08T04:11:24.751Z,30.18
2018-06-08T04:12:24.478Z,29.91
2018-06-08T04:13:24.732Z,30
2018-06-08T04:14:24.722Z,30.19
2018-06-08T04:15:24.452Z,30.39
2018-06-08T04:16:24.707Z,29.91
2018-06-08T04:17:24.427Z,30
2018-06-08T04:18:24.422Z,29.91
2018-06-08T04:19:24.673Z,30
2018-06-08T04:20:24.666Z,30.1
2018-06-08T04:21:24.391Z,29.62
2018-06-08T04:22:24.641Z,29.62
2018-06-08T04:23:24.372Z,29.43
2018-06-08T04:24:24.623Z,29.14
2018-06-08T04:25:24.613Z,29.33
2018-06-08T04:26:24.340Z,29.24
2018-06-08T04:27:24.599Z,28.85
2018-06-08T04:28:24.324Z,28.85
2018-06-08T04:29:24.582Z,29.04
2018-06-08T04:30:24.563Z,28.66
2018-06-08T04:31:24.554Z,29.04
2018-06-08T04:32:24.547Z,28.56
2018-06-08T04:33:24.533Z,28.56
2018-06-08T04:34:24.527Z,28.27
2018-06-08T04:35:24.252Z,28.27
2018-06-08T04:36:24.245Z,27.8
2018-06-08T04:37:24.498Z,27.7
2018-06-08T04:38:24.493Z,27.89
2018-06-08T04:39:24.475Z,28.08
2018-06-08T04:40:24.576Z,27.7
2018-06-08T04:41:24.458Z,27.7
2018-06-08T04:42:24.446Z,27.5
2018-06-08T04:43:24.437Z,27.5
2018-06-08T04:44:24.174Z,27.12
2018-06-08T04:45:24.156Z,27.4
2018-06-08T04:46:24.145Z,27.31
2018-06-08T04:47:24.136Z,26.93
2018-06-08T04:48:24.334Z,26.64
2018-06-08T04:49:24.116Z,26.64
2018-06-08T04:50:24.369Z,26.83
2018-06-08T04:51:24.156Z,26.93
2018-06-08T04:52:24.080Z,26.54
2018-06-08T04:53:24.074Z,26.25
2018-06-08T04:54:24.064Z,26.16
2018-06-08T04:55:24.323Z,25.39
2018-06-08T04:56:24.043Z,24.92
2018-06-08T04:57:24.300Z,24.71
2018-06-08T04:58:24.287Z,24.05
2018-06-08T04:59:24.020Z,24.33
2018-06-08T05:00:24.003Z,24.14
2018-06-08T05:01:23.997Z,23.94
2018-06-08T05:02:23.984Z,23.75
2018-06-08T05:03:24.246Z,23.46
2018-06-08T05:04:23.962Z,23.56
2018-06-08T05:05:24.218Z,23.67
2018-06-08T05:06:24.213Z,23.56
2018-06-08T05:07:24.198Z,23.85
2018-06-08T05:08:24.187Z,23.85
2018-06-08T05:09:23.914Z,23.46
2018-06-08T05:10:24.181Z,23.27
2018-06-08T05:11:23.896Z,23.28
2018-06-08T05:12:24.148Z,23.28
2018-06-08T05:13:24.141Z,23.09
2018-06-08T05:14:23.864Z,22.99
2018-06-08T05:15:23.854Z,22.99
2018-06-08T05:16:24.114Z,22.99
2018-06-08T05:17:23.835Z,22.99
2018-06-08T05:18:24.088Z,23.09
2018-06-08T05:19:23.816Z,23.38
2018-06-08T05:20:24.071Z,23.19
2018-06-08T05:21:23.808Z,23.19
2018-06-08T05:22:24.052Z,23.38
2018-06-08T05:23:24.043Z,22.9
2018-06-08T05:24:24.032Z,23.38
2018-06-08T05:25:24.024Z,22.8
2018-06-08T05:26:23.750Z,22.8
2018-06-08T05:27:24.015Z,23.47
2018-06-08T05:28:23.733Z,23.19
2018-06-08T05:29:23.992Z,23.19
2018-06-08T05:30:23.713Z,23.19
2018-06-08T05:31:23.972Z,23.3
2018-06-08T05:32:23.962Z,23.3
2018-06-08T05:33:23.949Z,23.19
2018-06-08T05:34:23.943Z,23.19
2018-06-08T05:35:23.933Z,23.19
2018-06-08T05:36:23.652Z,23.2
2018-06-08T05:37:23.694Z,22.91
2018-06-08T05:38:23.905Z,23.2
2018-06-08T05:39:23.889Z,23.2
2018-06-08T05:40:23.619Z,23.39
2018-06-08T05:41:23.872Z,23
2018-06-08T05:42:23.863Z,22.91
2018-06-08T05:43:23.858Z,23.1
2018-06-08T05:44:23.581Z,22.91
2018-06-08T05:45:24.039Z,23
2018-06-08T05:46:23.828Z,23
2018-06-08T05:47:23.556Z,23.2
2018-06-08T05:48:23.942Z,23.97
2018-06-08T05:49:23.804Z,23.87
2018-06-08T05:50:23.802Z,23.87
2018-06-08T05:51:23.787Z,24.35
2018-06-08T05:52:23.517Z,25.12
2018-06-08T05:53:23.770Z,24.93
2018-06-08T05:54:23.497Z,24.84
2018-06-08T05:55:23.748Z,24.85
2018-06-08T05:56:23.741Z,25.03
2018-06-08T05:57:23.733Z,25.32
2018-06-08T05:58:23.722Z,25.51
2018-06-08T05:59:23.711Z,24.84
2018-06-08T06:00:23.705Z,24.93
2018-06-08T06:01:23.427Z,25.51
2018-06-08T06:02:23.680Z,25.6
2018-06-08T06:03:23.674Z,25.9
2018-06-08T06:04:23.405Z,26.09
2018-06-08T06:05:23.657Z,27.05
2018-06-08T06:06:23.385Z,26.76
2018-06-08T06:07:23.642Z,26.37
2018-06-08T06:08:23.630Z,26.37
2018-06-08T06:09:23.357Z,26
2018-06-08T06:10:23.617Z,25.7
2018-06-08T06:11:23.603Z,26.09
2018-06-08T06:12:23.592Z,26.09
2018-06-08T06:13:23.590Z,26.29
2018-06-08T06:14:23.315Z,26.2
2018-06-08T06:15:23.570Z,26.39
2018-06-08T06:16:23.295Z,26.78
2018-06-08T06:17:23.554Z,26.95
2018-06-08T06:18:23.543Z,26.76
2018-06-08T06:19:23.529Z,26.78
2018-06-08T06:20:23.261Z,27.26
2018-06-08T06:21:23.249Z,26.86
2018-06-08T06:22:23.508Z,26.78
2018-06-08T06:23:23.500Z,26.87
2018-06-08T06:24:23.484Z,26.87
2018-06-08T06:25:23.483Z,26.78
2018-06-08T06:26:23.208Z,26.48
2018-06-08T06:27:23.472Z,26.39
2018-06-08T06:28:23.458Z,25.91
2018-06-08T06:29:23.452Z,25.91
2018-06-08T06:30:23.436Z,25.91
2018-06-08T06:31:23.160Z,25.62
2018-06-08T06:32:23.155Z,25.62
2018-06-08T06:33:23.147Z,25.04
2018-06-08T06:34:23.135Z,25.52
2018-06-08T06:35:23.133Z,25.43
2018-06-08T06:36:23.382Z,25.43
2018-06-08T06:37:23.111Z,26
2018-06-08T06:38:23.103Z,26.1
2018-06-08T06:39:23.095Z,26.58
2018-06-08T06:40:23.081Z,26.29
2018-06-08T06:41:23.340Z,26.68
2018-06-08T06:42:23.068Z,26.39
2018-06-08T06:43:23.056Z,26.29
2018-06-08T06:44:23.316Z,26.57
2018-06-08T06:45:23.301Z,26.48
2018-06-08T06:46:23.293Z,26.29
2018-06-08T06:47:23.284Z,26.1
2018-06-08T06:48:23.480Z,26.39
2018-06-08T06:49:23.268Z,26.48
2018-06-08T06:50:23.257Z,25.91
2018-06-08T06:51:23.282Z,25.81
2018-06-08T06:52:22.985Z,26.39
2018-06-08T06:53:23.237Z,26.58
2018-06-08T06:54:23.226Z,26.29
2018-06-08T06:55:22.949Z,26.87
2018-06-08T06:56:23.199Z,26.97
2018-06-08T06:57:23.194Z,27.16
2018-06-08T06:58:23.182Z,26.78
2018-06-08T06:59:23.181Z,27.16
2018-06-08T07:00:23.175Z,26.78
2018-06-08T07:01:22.908Z,26.78
2018-06-08T07:02:23.156Z,26.78
2018-06-08T07:03:23.146Z,26.97
2018-06-08T07:04:22.889Z,26.97
2018-06-08T07:05:23.130Z,27.08
2018-06-08T07:06:22.852Z,27.75
2018-06-08T07:07:22.846Z,28.42
2018-06-08T07:08:23.102Z,28.99
2018-06-08T07:09:22.836Z,28.22
2018-06-08T07:10:22.822Z,27.74
2018-06-08T07:11:23.121Z,27.83
2018-06-08T07:12:23.070Z,27.35
2018-06-08T07:13:23.061Z,27.55
2018-06-08T07:14:23.056Z,27.35
2018-06-08T07:15:22.776Z,27.55
2018-06-08T07:16:23.033Z,27.83
2018-06-08T07:17:23.021Z,27.56
2018-06-08T07:18:22.750Z,27.66
2018-06-08T07:19:23.009Z,27.37
2018-06-08T07:20:23.005Z,27.17
2018-06-08T07:21:22.994Z,27.66
2018-06-08T07:22:22.983Z,27.66
2018-06-08T07:23:22.972Z,27.56
2018-06-08T07:24:22.700Z,27.17
2018-06-08T07:25:22.953Z,27.37
2018-06-08T07:26:22.682Z,28.72
2018-06-08T07:27:22.943Z,29
2018-06-08T07:28:22.934Z,28.42
2018-06-08T07:29:22.923Z,28.42
2018-06-08T07:30:22.915Z,28.14
2018-06-08T07:31:22.905Z,29.29
2018-06-08T07:32:22.899Z,29.97
2018-06-08T07:33:22.895Z,31.41
2018-06-08T07:34:22.618Z,31.62
2018-06-08T07:35:22.609Z,35.1
2018-06-08T07:36:22.863Z,34.61
2018-06-08T07:37:22.598Z,35.28
2018-06-08T07:38:22.849Z,34.92
2018-06-08T07:39:22.581Z,36.85
2018-06-08T07:40:23.111Z,41.48
2018-06-08T07:41:22.565Z,46.71
2018-06-08T07:42:22.555Z,44.49
2018-06-08T07:43:22.549Z,43.35
2018-06-08T07:44:22.538Z,55.45
2018-06-08T07:45:22.799Z,55.65
2018-06-08T07:46:22.791Z,54
2018-06-08T07:47:22.782Z,59.05
2018-06-08T07:48:22.516Z,66.72
2018-06-08T07:49:22.506Z,72.36
2018-06-08T07:50:22.499Z,69.17
2018-06-08T07:51:22.497Z,69.17
2018-06-08T07:52:22.488Z,68.69
2018-06-08T07:53:22.744Z,68.59
2018-06-08T07:54:22.739Z,64.11
2018-06-08T07:55:22.469Z,63.63
2018-06-08T07:56:22.726Z,73.3
2018-06-08T07:57:22.718Z,70.68
2018-06-08T07:58:22.716Z,68.75
2018-06-08T07:59:22.445Z,65.43
2018-06-08T08:00:22.439Z,67.69
2018-06-08T08:01:22.705Z,67.01
2018-06-08T08:02:22.694Z,70.59
2018-06-08T08:03:22.423Z,68.49
2018-06-08T08:04:22.417Z,72.46
2018-06-08T08:05:22.676Z,73.53
2018-06-08T08:06:22.672Z,72.95
2018-06-08T08:07:22.667Z,73.33
2018-06-08T08:08:22.660Z,74.59
2018-06-08T08:09:22.390Z,74.36
2018-06-08T08:10:22.648Z,72.78
2018-06-08T08:11:22.645Z,70.52
2018-06-08T08:12:22.636Z,65.59
2018-06-08T08:13:22.635Z,63.28
2018-06-08T08:14:22.624Z,64.53
2018-06-08T08:15:22.619Z,64.53
2018-06-08T08:16:22.614Z,63.66
2018-06-08T08:17:22.609Z,65.59
2018-06-08T08:18:22.601Z,63.95
2018-06-08T08:19:22.653Z,61.15
2018-06-08T08:20:22.589Z,60.28
2018-06-08T08:21:22.583Z,61.89
2018-06-08T08:22:22.575Z,62.57
2018-06-08T08:23:22.571Z,61.8
2018-06-08T08:24:22.298Z,61.41
2018-06-08T08:25:22.564Z,61.12
2018-06-08T08:26:22.296Z,61.12
2018-06-08T08:27:22.286Z,58.22
2018-06-08T08:28:22.539Z,55.71
2018-06-08T08:29:22.537Z,55.9
2018-06-08T08:30:22.262Z,55.23
2018-06-08T08:31:22.521Z,54.27
2018-06-08T08:32:22.518Z,58.7
2018-06-08T08:33:22.248Z,56.68
2018-06-08T08:34:22.239Z,55.71
2018-06-08T08:35:22.232Z,53.78
2018-06-08T08:36:22.229Z,53.47
2018-06-08T08:37:22.482Z,56.56
2018-06-08T08:38:22.478Z,59.25
2018-06-08T08:39:22.475Z,57.62
2018-06-08T08:40:22.666Z,55.59
2018-06-08T08:41:22.455Z,54.53
2018-06-08T08:42:22.464Z,54.24
2018-06-08T08:43:22.178Z,53.37
2018-06-08T08:44:22.171Z,53.75
2018-06-08T08:45:22.430Z,55.1
2018-06-08T08:46:22.425Z,54.62
2018-06-08T08:47:22.153Z,52.31
2018-06-08T08:48:22.345Z,53.37
2018-06-08T08:49:22.137Z,52.11
2018-06-08T08:50:22.400Z,51.05
2018-06-08T08:51:22.396Z,49.41
2018-06-08T08:52:22.382Z,48.16
2018-06-08T08:53:22.373Z,47.75
2018-06-08T08:54:22.366Z,46.69
2018-06-08T08:55:22.365Z,47.09
2018-06-08T08:56:22.095Z,45.04
2018-06-08T08:57:22.084Z,45.45
2018-06-08T08:58:22.342Z,46.2
2018-06-08T08:59:22.331Z,45.92
2018-06-08T09:00:22.323Z,44.76
2018-06-08T09:01:22.320Z,44.59
2018-06-08T09:02:22.046Z,44.27
2018-06-08T09:03:22.299Z,42.18
2018-06-08T09:04:22.030Z,43.24
2018-06-08T09:05:22.285Z,44.59
2018-06-08T09:06:22.279Z,43.62
2018-06-08T09:07:22.284Z,44.29
2018-06-08T09:08:22.267Z,43.52
2018-06-08T09:09:22.260Z,42.18
2018-06-08T09:10:21.990Z,45.36
2018-06-08T09:11:21.977Z,45.55
2018-06-08T09:12:22.239Z,44.2
2018-06-08T09:13:21.965Z,45.07
2018-06-08T09:14:21.961Z,44.59
2018-06-08T09:15:22.215Z,44.01
2018-06-08T09:16:22.212Z,44.59
2018-06-08T09:17:22.201Z,43.52
2018-06-08T09:18:21.927Z,41.11
2018-06-08T09:19:21.922Z,41.02
2018-06-08T09:20:22.181Z,44.87
2018-06-08T09:21:22.171Z,45.26
2018-06-08T09:22:22.166Z,43.04
2018-06-08T09:23:21.896Z,43.02
2018-06-08T09:24:22.150Z,41.4
2018-06-08T09:25:22.142Z,39.94
2018-06-08T09:26:21.870Z,41.6
2018-06-08T09:27:22.206Z,41.98
2018-06-08T09:28:22.123Z,41.3
2018-06-08T09:29:22.116Z,40.82
2018-06-08T09:30:22.110Z,42.46
2018-06-08T09:31:22.099Z,42.66
2018-06-08T09:32:22.092Z,41.2
2018-06-08T09:33:22.090Z,41.69
2018-06-08T09:34:22.077Z,45.65
2018-06-08T09:35:21.807Z,44.87
2018-06-08T09:36:22.063Z,44.01
2018-06-08T09:37:22.057Z,42.46
2018-06-08T09:38:21.789Z,41.78
2018-06-08T09:39:22.042Z,40.44
2018-06-08T09:40:21.772Z,42.66
2018-06-08T09:41:22.064Z,44.59
2018-06-08T09:42:22.022Z,44.01
2018-06-08T09:43:22.021Z,45.55
2018-06-08T09:44:22.090Z,44.85
2018-06-08T09:45:21.737Z,44.66
2018-06-08T09:46:22.034Z,43.02
2018-06-08T09:47:21.988Z,43.5
2018-06-08T09:48:21.915Z,45.36
2018-06-08T09:49:21.971Z,47
2018-06-08T09:50:21.972Z,45.92
2018-06-08T09:51:21.959Z,43.5
2018-06-08T09:52:21.949Z,43.43
2018-06-08T09:53:21.690Z,48.16
2018-06-08T09:54:21.953Z,48.25
2018-06-08T09:55:21.933Z,48.16
2018-06-08T09:56:21.927Z,50.86
2018-06-08T09:57:21.925Z,48.13
2018-06-08T09:58:21.658Z,49.48
2018-06-08T09:59:21.902Z,51.22
2018-06-08T10:00:21.898Z,47.27
2018-06-08T10:01:21.896Z,46.97
2018-06-08T10:02:21.613Z,48.74
2018-06-08T10:03:21.877Z,47.87
2018-06-08T10:04:21.867Z,46.59
2018-06-08T10:05:21.750Z,48.93
2018-06-08T10:06:21.587Z,47.07
2018-06-08T10:07:21.850Z,48.13
2018-06-08T10:08:21.836Z,49.29
2018-06-08T10:09:21.570Z,47.27
2018-06-08T10:10:21.822Z,46.4
2018-06-08T10:11:21.606Z,45.72
2018-06-08T10:12:21.811Z,45.92
2018-06-08T10:13:21.537Z,45.04
2018-06-08T10:14:21.805Z,46.11
2018-06-08T10:15:21.525Z,46.49
2018-06-08T10:16:21.520Z,45.99
2018-06-08T10:17:21.511Z,45.6
2018-06-08T10:18:21.765Z,45.51
2018-06-08T10:19:21.765Z,44.73
2018-06-08T10:20:21.749Z,44.54
2018-06-08T10:21:21.743Z,43.87
2018-06-08T10:22:21.473Z,42.42
2018-06-08T10:23:21.732Z,41.55
2018-06-08T10:24:21.722Z,40.97
2018-06-08T10:25:21.716Z,39.51
2018-06-08T10:26:21.703Z,38.26
2018-06-08T10:27:21.436Z,38.06
2018-06-08T10:28:21.779Z,36.43
2018-06-08T10:29:21.419Z,35.85
2018-06-08T10:30:21.672Z,34.5
2018-06-08T10:31:21.400Z,34.4
2018-06-08T10:32:21.655Z,32.86
2018-06-08T10:33:21.651Z,32.76
2018-06-08T10:34:21.375Z,31.8
2018-06-08T10:35:21.631Z,30.26
2018-06-08T10:36:21.362Z,30.35
2018-06-08T10:37:21.361Z,29.66
2018-06-08T10:38:21.348Z,29.95
2018-06-08T10:39:21.334Z,28.89
2018-06-08T10:40:21.598Z,28.89
2018-06-08T10:41:21.317Z,28.51
2018-06-08T10:42:21.571Z,28.31
2018-06-08T10:43:21.563Z,28.03
2018-06-08T10:44:21.558Z,27.74
2018-06-08T10:45:21.283Z,27.83
2018-06-08T10:46:21.274Z,27.74
2018-06-08T10:47:21.267Z,27.74
2018-06-08T10:48:21.931Z,27.45
2018-06-08T10:49:21.517Z,27.16
2018-06-08T10:50:21.560Z,26.68
2018-06-08T10:51:21.497Z,26.29
2018-06-08T10:52:21.485Z,26.28
2018-06-08T10:53:21.216Z,25.12
2018-06-08T10:54:21.473Z,24.84
2018-06-08T10:55:21.460Z,24.84
2018-06-08T10:56:21.463Z,24.65
2018-06-08T10:57:21.449Z,24.55
2018-06-08T10:58:21.435Z,24.16
2018-06-08T10:59:21.423Z,23.97
2018-06-08T11:00:21.419Z,24.07
2018-06-08T11:01:21.412Z,23.87
2018-06-08T11:02:21.135Z,24.16
2018-06-08T11:03:21.126Z,23.97
2018-06-08T11:04:21.377Z,24.07
2018-06-08T11:05:21.111Z,23.78
2018-06-08T11:06:21.362Z,23.97
2018-06-08T11:07:21.353Z,23.49
2018-06-08T11:08:21.081Z,23.58
2018-06-08T11:09:21.080Z,23.1
2018-06-08T11:10:21.327Z,23.58
2018-06-08T11:11:21.317Z,23.3
2018-06-08T11:12:21.308Z,23
2018-06-08T11:13:21.299Z,23.68
2018-06-08T11:14:21.033Z,23.2
2018-06-08T11:15:21.277Z,23.39
2018-06-08T11:16:21.011Z,23.2
2018-06-08T11:17:20.999Z,23.47
2018-06-08T11:18:20.989Z,23.87
2018-06-08T11:19:21.249Z,23.68
2018-06-08T11:20:20.971Z,23.47
2018-06-08T11:21:21.234Z,22.91
2018-06-08T11:22:21.219Z,23.1
2018-06-08T11:23:21.220Z,23.2
2018-06-08T11:24:20.937Z,23
2018-06-08T11:25:20.924Z,23
2018-06-08T11:26:20.917Z,22.91
2018-06-08T11:27:21.172Z,22.91
2018-06-08T11:28:21.163Z,23.3
2018-06-08T11:29:21.159Z,22.91
2018-06-08T11:30:21.146Z,23
2018-06-08T11:31:21.142Z,22.91
2018-06-08T11:32:21.124Z,23
2018-06-08T11:33:21.121Z,23
2018-06-08T11:34:21.106Z,23.39
2018-06-08T11:35:21.105Z,23
2018-06-08T11:36:20.826Z,23.1
2018-06-08T11:37:21.081Z,22.91
2018-06-08T11:38:21.077Z,22.81
2018-06-08T11:39:21.245Z,23
2018-06-08T11:40:20.798Z,23
2018-06-08T11:41:21.049Z,23.1
2018-06-08T11:42:21.040Z,22.81
2018-06-08T11:43:21.043Z,22.72
2018-06-08T11:44:21.017Z,22.81
2018-06-08T11:45:21.017Z,23.2
2018-06-08T11:46:21.000Z,23.2
2018-06-08T11:47:20.992Z,22.63
2018-06-08T11:48:20.723Z,22.92
2018-06-08T11:49:20.710Z,22.92
2018-06-08T11:50:20.701Z,23.6
2018-06-08T11:51:20.958Z,23.11
2018-06-08T11:52:20.955Z,24.08
2018-06-08T11:53:21.093Z,25.04
2018-06-08T11:54:20.930Z,25.13
2018-06-08T11:55:20.661Z,24.85
2018-06-08T11:56:20.917Z,25.62
2018-06-08T11:57:20.907Z,25.62
2018-06-08T11:58:20.634Z,27.45
2018-06-08T11:59:20.887Z,26.29
2018-06-08T12:00:20.669Z,26.29
2018-06-08T12:01:20.621Z,26.68
2018-06-08T12:02:20.868Z,26.31
2018-06-08T12:03:20.855Z,25.82
2018-06-08T12:04:20.850Z,25.63
2018-06-08T12:05:20.578Z,26.5
2018-06-08T12:06:20.870Z,27.37
2018-06-08T12:07:20.821Z,28.23
2018-06-08T12:08:20.822Z,27.66
2018-06-08T12:09:20.819Z,27.75
2018-06-08T12:10:20.536Z,27.75
2018-06-08T12:11:20.793Z,27.08
2018-06-08T12:12:20.789Z,27.75
2018-06-08T12:13:20.511Z,27.75
2018-06-08T12:14:20.768Z,29.89
2018-06-08T12:15:20.492Z,30.64
2018-06-08T12:16:20.748Z,30.18
2018-06-08T12:17:20.746Z,29.02
2018-06-08T12:18:20.468Z,31.81
2018-06-08T12:19:20.730Z,31.99
2018-06-08T12:20:20.716Z,30.66
2018-06-08T12:21:20.709Z,29.02
2018-06-08T12:22:20.704Z,30.46
2018-06-08T12:23:20.427Z,28.53
2018-06-08T12:24:20.695Z,28.83
2018-06-08T12:25:20.415Z,29.98
2018-06-08T12:26:20.672Z,29.98
2018-06-08T12:27:20.675Z,31.72
2018-06-08T12:28:20.400Z,31.81
2018-06-08T12:29:20.652Z,30.37
2018-06-08T12:30:20.641Z,30.27
2018-06-08T12:31:20.638Z,34.03
2018-06-08T12:32:20.372Z,33.55
2018-06-08T12:33:20.621Z,33.07
2018-06-08T12:34:20.614Z,31.73
2018-06-08T12:35:20.603Z,31.25
2018-06-08T12:36:20.333Z,31.46
2018-06-08T12:37:20.602Z,36.48
2018-06-08T12:38:20.585Z,37.08
2018-06-08T12:39:20.575Z,34.47
2018-06-08T12:40:20.580Z,36.69
2018-06-08T12:41:20.564Z,39.8
2018-06-08T12:42:20.293Z,43.28
2018-06-08T12:43:20.559Z,43.57
2018-06-08T12:44:20.542Z,48.32
2018-06-08T12:45:20.544Z,48.16
2018-06-08T12:46:20.536Z,53.31
2018-06-08T12:47:20.272Z,54.27
2018-06-08T12:48:20.724Z,62.88
2018-06-08T12:49:20.252Z,62.3
2018-06-08T12:50:20.246Z,68.33
2018-06-08T12:51:20.511Z,70.27
2018-06-08T12:52:20.515Z,73.79
2018-06-08T12:53:20.238Z,70.7
2018-06-08T12:54:20.496Z,71.37
2018-06-08T12:55:20.490Z,71.37
2018-06-08T12:56:20.489Z,71.47
2018-06-08T12:57:20.223Z,71.82